Time;durP1;ratioP1;P1;durP2;ratioP2;P2;SDS_P1;SDS_P2;PMS_P1;PMS_P2;Temp;Humidity;BMP_temperature;BMP_pressure;BME280_temperature;BME280_humidity;BME280_pressure;Samples;Min_cycle;Max_cycle;Signal;HPM_P1;HPM_P2
2021/01/14 00:01:43;;;;;;;3.97;3.00;;;;;;;-3.98;100.00;98833.38;1831597;78;20993;-72
2021/01/14 00:04:11;;;;;;;2.70;2.17;;;;;;;-4.02;100.00;98828.80;1799270;79;20929;-71
2021/01/14 00:06:39;;;;;;;2.27;1.90;;;;;;;-4.04;100.00;98832.48;1831890;78;21459;-71
2021/01/14 00:09:06;;;;;;;3.40;2.30;;;;;;;-4.05;100.00;98843.53;1799194;79;21073;-71
2021/01/14 00:11:34;;;;;;;2.27;2.00;;;;;;;-4.05;100.00;98836.92;1831707;78;21197;-73
2021/01/14 00:14:02;;;;;;;3.90;2.97;;;;;;;-4.05;100.00;98836.92;1799307;79;21119;-72
2021/01/14 00:16:32;;;;;;;1.70;1.60;;;;;;;-4.05;100.00;98841.38;1831617;78;21569;-71
2021/01/14 00:19:00;;;;;;;5.97;3.37;;;;;;;-4.05;100.00;98828.17;1799284;79;20980;-70
2021/01/14 00:21:28;;;;;;;4.10;3.40;;;;;;;-4.04;100.00;98819.28;1831764;78;21580;-72
2021/01/14 00:23:56;;;;;;;4.37;2.20;;;;;;;-4.04;100.00;98822.78;1799324;79;21645;-72
2021/01/14 00:26:24;;;;;;;2.27;2.07;;;;;;;-4.02;100.00;98824.84;1831583;78;21538;-71
2021/01/14 00:28:52;;;;;;;3.90;2.20;;;;;;;-4.02;100.00;98826.61;1799267;79;20946;-70
2021/01/14 00:31:20;;;;;;;3.17;2.00;;;;;;;-4.02;100.00;98829.25;1831683;78;21016;-71
2021/01/14 00:33:48;;;;;;;4.80;3.23;;;;;;;-4.01;100.00;98816.42;1799474;79;21641;-72
2021/01/14 00:36:30;;;;;;;2.03;1.90;;;;;;;-4.03;100.00;98828.41;1831658;78;21153;-71
2021/01/14 00:38:46;;;;;;;4.40;2.43;;;;;;;-4.06;100.00;98822.51;1797139;79;21591;-71
2021/01/14 00:41:14;;;;;;;5.83;2.63;;;;;;;-4.07;100.00;98831.37;1831886;78;21475;-72
2021/01/14 00:43:42;;;;;;;8.83;5.03;;;;;;;-4.06;100.00;98827.30;1799428;79;20922;-72
2021/01/14 00:46:21;;;;;;;5.93;3.67;;;;;;;-4.06;100.00;98831.27;1776968;78;21626;-71
2021/01/14 00:48:49;;;;;;;2.67;2.00;;;;;;;-4.07;100.00;98834.01;1798231;79;21204;-71
2021/01/14 00:51:17;;;;;;;4.20;2.27;;;;;;;-4.07;100.00;98841.93;1831700;78;20945;-71
2021/01/14 00:53:45;;;;;;;3.80;2.97;;;;;;;-4.05;100.00;98850.13;1799277;79;20894;-71
2021/01/14 00:56:13;;;;;;;4.17;2.77;;;;;;;-4.05;100.00;98853.25;1831672;78;20985;-72
2021/01/14 00:58:41;;;;;;;5.57;3.00;;;;;;;-4.04;100.00;98842.59;1799376;79;21339;-71
2021/01/14 01:01:09;;;;;;;3.27;2.43;;;;;;;-4.03;100.00;98840.78;1831504;78;21200;-71
2021/01/14 01:03:37;;;;;;;3.40;2.10;;;;;;;-4.05;100.00;98842.20;1799296;79;21040;-71
2021/01/14 01:06:06;;;;;;;7.43;3.27;;;;;;;-4.04;100.00;98845.69;1831791;78;20977;-72
2021/01/14 01:08:34;;;;;;;5.83;4.63;;;;;;;-4.03;100.00;98860.59;1799350;79;21008;-71
2021/01/14 01:11:02;;;;;;;7.47;4.90;;;;;;;-4.04;100.00;98864.16;1831798;78;20879;-71
2021/01/14 01:13:30;;;;;;;5.90;3.37;;;;;;;-4.07;100.00;98856.00;1799259;79;21653;-71
2021/01/14 01:15:59;;;;;;;6.13;3.97;;;;;;;-4.07;100.00;98864.38;1831644;78;21048;-72
2021/01/14 01:18:27;;;;;;;5.93;2.83;;;;;;;-4.08;100.00;98862.70;1799334;79;20997;-71
2021/01/14 01:20:55;;;;;;;3.90;2.87;;;;;;;-4.06;100.00;98863.44;1831631;78;21001;-71
2021/01/14 01:23:23;;;;;;;5.20;3.10;;;;;;;-4.06;100.00;98862.11;1796207;79;20939;-72
2021/01/14 01:25:51;;;;;;;2.73;2.07;;;;;;;-4.07;100.00;98858.64;1794096;80;21950;-71
2021/01/14 01:28:19;;;;;;;5.23;3.57;;;;;;;-4.07;100.00;98857.77;1793907;80;21038;-71
2021/01/14 01:30:47;;;;;;;2.83;1.37;;;;;;;-4.07;100.00;98869.20;1794134;80;21046;-72
2021/01/14 01:33:14;;;;;;;5.37;3.20;;;;;;;-4.06;100.00;98873.51;1794129;80;20934;-72
2021/01/14 01:35:43;;;;;;;3.07;2.77;;;;;;;-4.03;100.00;98868.02;1796781;79;20929;-72
2021/01/14 01:38:11;;;;;;;3.77;2.20;;;;;;;-4.01;100.00;98863.48;1832286;78;21200;-70
2021/01/14 01:40:40;;;;;;;4.33;3.00;;;;;;;-4.01;100.00;98878.48;1807334;79;20953;-71
2021/01/14 01:43:08;;;;;;;5.57;2.67;;;;;;;-3.99;100.00;98877.06;1832265;78;20950;-71
2021/01/14 01:45:36;;;;;;;4.57;3.00;;;;;;;-3.99;100.00;98883.17;1807498;79;21031;-71
2021/01/14 01:48:05;;;;;;;6.07;2.80;;;;;;;-4.02;100.00;98886.89;1832266;78;20965;-72
2021/01/14 01:50:34;;;;;;;2.63;1.73;;;;;;;-4.05;100.00;98889.73;1805256;79;21815;-71
2021/01/14 01:53:02;;;;;;;4.53;2.83;;;;;;;-4.02;100.00;98893.95;1828759;78;20945;-71
2021/01/14 01:55:30;;;;;;;4.33;2.10;;;;;;;-4.01;100.00;98893.01;1803786;79;21020;-71
2021/01/14 01:57:58;;;;;;;6.40;2.70;;;;;;;-4.03;100.00;98902.84;1828819;78;20973;-71
2021/01/14 02:00:26;;;;;;;4.43;3.30;;;;;;;-4.02;100.00;98903.19;1804051;79;21315;-72
2021/01/14 02:02:53;;;;;;;2.77;2.20;;;;;;;-4.01;100.00;98904.89;1813534;78;21750;-71
2021/01/14 02:05:21;;;;;;;3.87;2.13;;;;;;;-3.99;100.00;98904.30;1803894;79;20944;-71
2021/01/14 02:08:07;;;;;;;4.10;1.87;;;;;;;-3.96;100.00;98908.55;1825960;78;21620;-72
2021/01/14 02:10:40;;;;;;;3.80;2.43;;;;;;;-3.94;100.00;98911.43;1825421;78;21009;-72
2021/01/14 02:13:17;;;;;;;;;;;;;;;-3.92;100.00;98916.13;1828765;78;20981;-72
2021/01/14 02:15:45;;;;;;;4.80;3.00;;;;;;;-3.91;100.00;98909.03;1821868;78;21290;-72
2021/01/14 02:18:18;;;;;;;5.27;3.17;;;;;;;-3.88;100.00;98910.16;1825711;78;20985;-72
2021/01/14 02:20:59;;;;;;;5.70;2.37;;;;;;;-3.87;100.00;98907.41;1826000;78;21028;-72
2021/01/14 02:23:50;;;;;;;4.33;3.37;;;;;;;-3.85;100.00;98902.02;1802546;78;21416;-73
2021/01/14 02:26:21;;;;;;;3.40;3.10;;;;;;;-3.86;100.00;98905.60;1727514;83;21000;-71
2021/01/14 02:28:49;;;;;;;5.00;3.30;;;;;;;-3.87;100.00;98904.77;1727906;83;21520;-73
2021/01/14 02:31:17;;;;;;;5.87;4.50;;;;;;;-3.87;100.00;98903.94;1727648;83;21020;-71
2021/01/14 02:33:50;;;;;;;3.27;2.27;;;;;;;-3.88;100.00;98898.27;1727667;83;21075;-72
2021/01/14 02:36:27;;;;;;;11.93;3.83;;;;;;;-3.85;100.00;98907.30;1845774;76;22804;-71
2021/01/14 02:38:55;;;;;;;2.93;2.47;;;;;;;-3.90;100.00;98906.30;1815765;78;20976;-71
2021/01/14 02:41:23;;;;;;;2.60;2.33;;;;;;;-3.91;100.00;98901.98;1784602;79;21365;-71
2021/01/14 02:43:51;;;;;;;6.33;3.10;;;;;;;-3.91;100.00;98911.23;1815813;79;21020;-71
2021/01/14 02:46:21;;;;;;;1.93;1.77;;;;;;;-3.92;100.00;98908.20;1815822;79;21526;-71
2021/01/14 02:49:11;;;;;;;5.97;2.47;;;;;;;-3.91;100.00;98911.67;1784898;79;20992;-71
2021/01/14 02:51:50;;;;;;;4.83;2.87;;;;;;;-3.91;100.00;98908.59;1815651;77;21008;-70
2021/01/14 02:54:18;;;;;;;2.30;2.13;;;;;;;-3.93;100.00;98904.34;1815649;79;22171;-70
2021/01/14 02:56:49;;;;;;;7.13;3.57;;;;;;;-3.98;100.00;98903.36;1815625;79;21060;-72
2021/01/14 02:59:17;;;;;;;2.37;2.07;;;;;;;-3.97;100.00;98901.56;1784870;79;21039;-70
2021/01/14 03:01:46;;;;;;;6.33;3.67;;;;;;;-3.99;100.00;98899.02;1815714;79;21007;-72
2021/01/14 03:04:14;;;;;;;7.90;4.07;;;;;;;-3.99;100.00;98906.94;1784422;79;21035;-71
2021/01/14 03:06:42;;;;;;;4.50;3.60;;;;;;;-4.02;100.00;98900.55;1815750;79;22163;-71
2021/01/14 03:09:10;;;;;;;3.73;3.13;;;;;;;-4.04;100.00;98903.77;1815612;79;20949;-72
2021/01/14 03:11:39;;;;;;;2.63;1.67;;;;;;;-4.05;100.00;98902.94;1815764;79;21533;-72
2021/01/14 03:14:07;;;;;;;4.30;2.87;;;;;;;-4.06;100.00;98900.40;1815693;79;21016;-72
2021/01/14 03:16:39;;;;;;;3.70;2.70;;;;;;;-4.08;100.00;98903.14;1815541;79;21541;-72
2021/01/14 03:19:06;;;;;;;4.37;3.20;;;;;;;-4.07;100.00;98915.86;1815742;78;21489;-72
2021/01/14 03:21:34;;;;;;;4.97;2.83;;;;;;;-4.10;100.00;98914.29;1815706;79;21466;-71
2021/01/14 03:24:03;;;;;;;4.30;3.20;;;;;;;-4.12;100.00;98917.52;1837872;77;21119;-71
2021/01/14 03:26:32;;;;;;;3.67;2.33;;;;;;;-4.13;100.00;98920.26;1815756;79;21537;-71
2021/01/14 03:29:00;;;;;;;6.77;3.67;;;;;;;-4.16;100.00;98911.22;1811356;79;20940;-71
2021/01/14 03:31:28;;;;;;;5.33;3.10;;;;;;;-4.15;100.00;98904.52;1815785;79;21354;-71
2021/01/14 03:33:56;;;;;;;6.27;3.80;;;;;;;-4.17;100.00;98903.78;1815672;78;20909;-72
2021/01/14 03:36:24;;;;;;;6.00;3.67;;;;;;;-4.18;100.00;98901.25;1815414;79;20988;-71
2021/01/14 03:38:52;;;;;;;5.90;3.40;;;;;;;-4.20;100.00;98910.13;1815609;79;20976;-71
2021/01/14 03:41:20;;;;;;;8.03;3.07;;;;;;;-4.21;100.00;98912.88;1815527;79;21043;-71
2021/01/14 03:43:48;;;;;;;3.90;2.40;;;;;;;-4.21;100.00;98907.11;1815588;78;21025;-71
2021/01/14 03:46:20;;;;;;;4.40;2.90;;;;;;;-4.21;100.00;98912.39;1815460;78;21122;-71
2021/01/14 03:48:48;;;;;;;5.20;3.47;;;;;;;-4.20;100.00;98908.81;1815105;79;21272;-71
2021/01/14 03:51:21;;;;;;;10.10;4.17;;;;;;;-4.18;100.00;98915.28;1815070;79;21466;-71
2021/01/14 03:53:51;;;;;;;4.80;3.27;;;;;;;-4.21;100.00;98915.03;1815168;79;20965;-72
2021/01/14 03:56:19;;;;;;;6.13;4.13;;;;;;;-4.22;100.00;98919.09;1815055;79;21244;-72
2021/01/14 03:58:46;;;;;;;3.70;3.33;;;;;;;-4.24;100.00;98925.80;1814971;79;21533;-73
2021/01/14 04:01:15;;;;;;;4.43;3.43;;;;;;;-4.27;100.00;98922.52;1814997;79;21457;-72
2021/01/14 04:03:43;;;;;;;5.27;2.90;;;;;;;-4.32;100.00;98919.34;1815002;79;20932;-70
2021/01/14 04:06:11;;;;;;;7.57;3.83;;;;;;;-4.34;100.00;98925.20;1815020;79;20996;-70
2021/01/14 04:08:40;;;;;;;8.83;5.40;;;;;;;-4.35;100.00;98915.62;1814968;79;21609;-70
2021/01/14 04:11:11;;;;;;;4.53;3.77;;;;;;;-4.36;100.00;98925.79;1814930;79;21044;-72
2021/01/14 04:13:41;;;;;;;5.23;3.20;;;;;;;-4.38;100.00;98921.93;1814974;79;21051;-71
2021/01/14 04:16:12;;;;;;;6.27;4.20;;;;;;;-4.39;100.00;98917.63;1814924;79;21000;-71
2021/01/14 04:18:42;;;;;;;6.92;3.40;;;;;;;-4.40;100.00;98931.27;1815157;79;21016;-72
2021/01/14 04:21:11;;;;;;;4.40;3.33;;;;;;;-4.42;100.00;98936.29;1814988;77;22281;-71
2021/01/14 04:23:39;;;;;;;8.63;5.27;;;;;;;-4.43;100.00;98943.34;1783587;79;21519;-71
2021/01/14 04:26:08;;;;;;;2.90;2.60;;;;;;;-4.43;100.00;98943.34;1746764;81;21017;-73
2021/01/14 04:28:39;;;;;;;4.50;3.17;;;;;;;-4.43;100.00;98951.73;1746715;82;21171;-71
2021/01/14 04:31:07;;;;;;;7.03;3.53;;;;;;;-4.43;100.00;98948.62;1747074;82;21040;-71
2021/01/14 04:33:35;;;;;;;6.60;4.37;;;;;;;-4.44;100.00;98954.86;1746837;81;21214;-71
2021/01/14 04:36:04;;;;;;;9.37;5.70;;;;;;;-4.44;100.00;98954.02;1746725;81;21017;-72
2021/01/14 04:38:32;;;;;;;5.77;3.93;;;;;;;-4.48;100.00;98953.39;1746847;82;20978;-72
2021/01/14 04:41:02;;;;;;;7.87;4.77;;;;;;;-4.48;100.00;98948.11;1746657;82;21006;-71
2021/01/14 04:43:32;;;;;;;8.13;4.23;;;;;;;-4.48;100.00;98949.43;1746842;82;20982;-70
2021/01/14 04:46:05;;;;;;;4.90;3.77;;;;;;;-4.47;100.00;98948.46;1746735;82;21188;-71
2021/01/14 04:48:49;;;;;;;9.70;5.70;;;;;;;-4.47;100.00;98947.63;1746817;81;21037;-71
2021/01/14 04:51:20;;;;;;;4.95;3.40;;;;;;;-4.43;100.00;98952.58;1641756;85;21125;-70
2021/01/14 04:53:50;;;;;;;5.17;4.17;;;;;;;-4.42;100.00;98951.64;1639669;87;21689;-72
2021/01/14 04:56:20;;;;;;;5.40;3.17;;;;;;;-4.42;100.00;98956.92;1697290;84;21024;-71
2021/01/14 04:58:49;;;;;;;9.53;4.63;;;;;;;-4.42;100.00;98946.84;1697333;84;21695;-73
2021/01/14 05:01:21;;;;;;;10.77;5.23;;;;;;;-4.43;100.00;98940.70;1697566;84;21076;-73
2021/01/14 05:03:51;;;;;;;6.47;4.37;;;;;;;-4.41;100.00;98934.87;1697324;84;21125;-72
2021/01/14 05:06:21;;;;;;;8.03;4.43;;;;;;;-4.38;100.00;98932.48;1697428;84;20989;-72
2021/01/14 05:08:56;;;;;;;10.00;5.43;;;;;;;-4.33;100.00;98936.14;1697140;84;21131;-72
2021/01/14 05:11:43;;;;;;;8.63;4.63;;;;;;;-4.25;100.00;98937.77;1852385;76;23232;-72
2021/01/14 05:14:11;;;;;;;9.73;5.97;;;;;;;-4.30;100.00;98939.42;1683255;84;21045;-74
2021/01/14 05:16:40;;;;;;;6.30;4.00;;;;;;;-4.33;100.00;98944.91;1686606;85;21295;-72
2021/01/14 05:19:07;;;;;;;4.67;2.60;;;;;;;-4.32;100.00;98951.88;1678441;83;21055;-71
2021/01/14 05:21:35;;;;;;;8.67;5.27;;;;;;;-4.32;100.00;98941.78;1711788;83;21112;-72
2021/01/14 05:24:13;;;;;;;9.57;5.30;;;;;;;-4.36;100.00;98950.38;1697674;83;21189;-72
2021/01/14 05:26:43;;;;;;;10.30;6.57;;;;;;;-4.36;100.00;98957.46;1686514;85;21030;-78
2021/01/14 05:29:18;;;;;;;9.03;5.63;;;;;;;-4.35;100.00;98960.48;1711819;83;22708;-73
2021/01/14 05:31:49;;;;;;;11.27;5.17;;;;;;;-4.35;100.00;98965.77;1686484;85;21609;-73
2021/01/14 05:34:17;;;;;;;10.47;6.03;;;;;;;-4.32;100.00;98978.73;1712149;83;21042;-72
2021/01/14 05:37:02;;;;;;;8.20;5.07;;;;;;;-4.31;100.00;98984.39;1686487;85;21646;-73
2021/01/14 05:39:28;;;;;;;8.40;5.42;;;;;;;-4.29;100.00;98983.81;1709082;83;20973;-71
2021/01/14 05:41:56;;;;;;;8.27;4.90;;;;;;;-4.28;100.00;98987.67;1686671;85;21684;-72
2021/01/14 05:44:42;;;;;;;7.43;4.60;;;;;;;-4.27;100.00;98988.51;1712012;83;21145;-72
2021/01/14 05:47:23;;;;;;;10.40;6.40;;;;;;;-4.20;100.00;98983.19;1845255;76;22797;-72
2021/01/14 05:50:00;;;;;;;7.10;5.17;;;;;;;-4.20;100.00;98984.05;1759126;79;21004;-71
2021/01/14 05:52:32;;;;;;;11.50;6.20;;;;;;;-4.17;100.00;98986.95;1758740;81;21511;-73
2021/01/14 05:55:09;;;;;;;5.97;4.05;;;;;;;-4.17;100.00;98983.47;1759050;81;21083;-73
2021/01/14 05:57:39;;;;;;;13.80;7.50;;;;;;;-4.17;100.00;98983.47;1758764;80;20949;-72
2021/01/14 06:00:12;;;;;;;11.93;6.67;;;;;;;-4.14;100.00;98981.47;1759093;81;21328;-72
2021/01/14 06:02:41;;;;;;;7.50;4.33;;;;;;;-4.12;100.00;98988.80;1758915;80;20996;-71
2021/01/14 06:05:33;;;;;;;10.93;6.13;;;;;;;-4.11;100.00;98989.64;1758959;79;21204;-72
2021/01/14 06:08:02;;;;;;;9.97;6.50;;;;;;;-4.10;100.00;98986.90;1758750;81;20972;-71
2021/01/14 06:10:34;;;;;;;9.00;4.90;;;;;;;-4.06;100.00;98994.13;1758877;81;20993;-71
2021/01/14 06:13:02;;;;;;;13.18;6.92;;;;;;;-4.08;100.00;99000.84;1758471;81;21616;-78
2021/01/14 06:15:29;;;;;;;19.40;8.60;;;;;;;-4.10;100.00;99004.06;1752335;81;21597;-73
2021/01/14 06:18:01;;;;;;;13.83;8.53;;;;;;;-4.15;100.00;99013.25;1728317;83;21187;-73
2021/01/14 06:20:29;;;;;;;7.47;5.30;;;;;;;-4.15;100.00;99007.97;1728453;83;21080;-74
2021/01/14 06:22:58;;;;;;;13.60;6.70;;;;;;;-4.16;100.00;99012.41;1762035;79;20942;-75
2021/01/14 06:25:26;;;;;;;12.20;6.00;;;;;;;-4.12;100.00;99019.65;1760021;79;20953;-76
2021/01/14 06:27:59;;;;;;;13.67;7.87;;;;;;;-4.13;100.00;99011.34;1749816;81;21013;-79
2021/01/14 06:30:27;;;;;;;;;;;;;;;-4.12;100.00;99013.89;1750301;82;21832;-79
2021/01/14 06:33:02;;;;;;;13.73;6.20;;;;;;;-4.13;100.00;99020.10;1747472;82;20130;-78
2021/01/14 06:35:30;;;;;;;8.77;5.57;;;;;;;-4.12;100.00;99022.29;1746974;81;21013;-72
2021/01/14 06:38:02;;;;;;;10.60;6.13;;;;;;;-4.08;100.00;99025.09;1740122;81;21025;-71
2021/01/14 06:40:30;;;;;;;11.23;6.60;;;;;;;-4.04;100.00;99028.75;1769900;81;21029;-72
2021/01/14 06:43:00;;;;;;;15.03;6.60;;;;;;;-4.01;100.00;99027.68;1770059;81;21819;-72
2021/01/14 06:45:33;;;;;;;14.03;7.67;;;;;;;-4.02;100.00;99025.98;1768225;81;21093;-73
2021/01/14 06:48:03;;;;;;;11.63;7.10;;;;;;;-3.99;100.00;99026.27;1742817;82;21073;-73
2021/01/14 06:50:32;;;;;;;12.43;7.97;;;;;;;-3.99;100.00;99024.45;1759171;81;21083;-72
2021/01/14 06:53:06;;;;;;;11.90;7.00;;;;;;;-3.95;100.00;99027.73;1747071;82;21588;-73
2021/01/14 06:55:34;;;;;;;12.77;6.70;;;;;;;-3.91;100.00;99030.08;1759154;81;22525;-72
2021/01/14 06:58:16;;;;;;;14.93;7.57;;;;;;;-3.90;100.00;99022.98;1746552;82;21077;-72
2021/01/14 07:00:48;;;;;;;13.88;6.47;;;;;;;-3.89;100.00;99029.98;1727579;83;21239;-71
2021/01/14 07:03:24;;;;;;;13.55;7.28;;;;;;;-3.88;100.00;99031.20;1727530;83;21060;-71
2021/01/14 07:05:59;;;;;;;10.37;6.43;;;;;;;-3.83;100.00;99031.70;1726125;83;21176;-73
2021/01/14 07:08:38;;;;;;;17.03;7.53;;;;;;;-3.81;100.00;99027.64;1727579;83;21661;-72
2021/01/14 07:11:19;;;;;;;11.10;6.00;;;;;;;-3.83;100.00;99029.06;1727315;83;21661;-73
2021/01/14 07:13:49;;;;;;;9.23;6.07;;;;;;;-3.85;100.00;99023.05;1727863;83;21037;-72
2021/01/14 07:16:20;;;;;;;10.30;5.80;;;;;;;-3.84;100.00;99032.67;1727313;83;21169;-72
2021/01/14 07:18:56;;;;;;;13.47;6.57;;;;;;;-3.76;100.00;99025.53;1842676;76;22973;-73
2021/01/14 07:21:34;;;;;;;15.30;8.00;;;;;;;-3.76;100.00;99035.27;1827729;77;20959;-72
2021/01/14 07:24:20;;;;;;;16.07;8.40;;;;;;;-3.75;100.00;99037.80;1824095;77;21359;-72
2021/01/14 07:26:53;;;;;;;20.23;11.07;;;;;;;-3.73;100.00;99037.22;1826816;77;21002;-71
2021/01/14 08:16:55;;;;;;;16.73;9.97;;;;;;;-3.73;100.00;99079.97;1678208;83;21078;-74
2021/01/14 08:19:32;;;;;;;13.73;8.73;;;;;;;-3.76;100.00;99084.14;1698743;83;21172;-76
2021/01/14 08:22:10;;;;;;;21.03;13.17;;;;;;;-3.74;100.00;99079.59;1697875;83;21068;-74
2021/01/14 08:24:48;;;;;;;13.87;8.13;;;;;;;-3.69;100.00;99081.45;1692909;83;21352;-76
2021/01/14 08:27:34;;;;;;;10.37;6.30;;;;;;;-3.68;100.00;99077.38;1690366;83;21086;-78
2021/01/14 08:30:16;;;;;;;15.87;8.57;;;;;;;-3.70;100.00;99085.02;1675989;84;20947;-87
2021/01/14 08:33:04;;;;;;;12.30;6.60;;;;;;;-3.72;100.00;99081.19;1687352;84;21276;-84
2021/01/14 08:35:40;;;;;;;10.27;5.43;;;;;;;-3.73;100.00;99079.97;1723708;81;21052;-79
2021/01/14 08:38:14;;;;;;;11.20;6.13;;;;;;;-3.73;100.00;99076.84;1743818;81;21164;-80
2021/01/14 08:40:46;;;;;;;12.70;6.80;;;;;;;-3.74;100.00;99065.89;1733605;81;21623;-86
2021/01/14 08:43:16;;;;;;;9.10;5.80;;;;;;;-3.68;100.00;99067.30;1743695;81;21588;-84
2021/01/14 08:45:52;;;;;;;12.67;7.40;;;;;;;-3.66;100.00;99058.30;1742512;82;21443;-85
2021/01/14 08:48:23;;;;;;;15.57;7.57;;;;;;;-3.62;100.00;99060.26;1732203;81;21060;-82
2021/01/14 08:51:01;;;;;;;10.17;5.53;;;;;;;-3.60;100.00;99062.31;1744108;81;21001;-81
2021/01/14 08:53:35;;;;;;;12.63;7.17;;;;;;;-3.62;100.00;99062.91;1740373;82;21020;-86
2021/01/14 08:56:19;;;;;;;12.40;6.33;;;;;;;-3.60;100.00;99061.00;1696341;83;21746;-86
2021/01/14 08:58:48;;;;;;;6.83;4.67;;;;;;;-3.55;100.00;99065.97;1690354;83;21332;-79
2021/01/14 09:01:22;;;;;;;17.80;9.23;;;;;;;-3.52;100.00;99053.39;1704344;83;20978;-84
2021/01/14 09:03:54;;;;;;;18.33;9.17;;;;;;;-3.47;100.00;99056.56;1691725;82;21038;-77
2021/01/14 09:06:30;;;;;;;12.70;6.70;;;;;;;-3.39;100.00;99061.31;1706442;83;20997;-82
2021/01/14 09:08:59;;;;;;;9.57;5.63;;;;;;;-3.35;100.00;99065.91;1690248;83;21069;-77
2021/01/14 09:11:27;;;;;;;10.93;5.67;;;;;;;-3.34;100.00;99065.80;1685022;82;21684;-74
2021/01/14 09:14:16;;;;;;;15.53;7.63;;;;;;;-3.33;100.00;99064.00;1692797;82;21074;-74
2021/01/14 09:16:46;;;;;;;13.37;6.70;;;;;;;-3.35;100.00;99063.27;1685748;84;21268;-72
2021/01/14 09:19:15;;;;;;;14.67;7.60;;;;;;;-3.37;100.00;99062.53;1694133;84;21105;-75
2021/01/14 09:21:45;;;;;;;13.60;7.63;;;;;;;-3.37;100.00;99058.56;1707179;83;21218;-73
2021/01/14 09:24:16;;;;;;;13.30;7.87;;;;;;;-3.36;100.00;99061.11;1712059;83;21208;-74
2021/01/14 09:26:52;;;;;;;12.83;7.57;;;;;;;-3.33;100.00;99056.06;1831494;76;23598;-82
2021/01/14 09:29:29;;;;;;;14.30;7.73;;;;;;;-3.38;100.00;99063.02;1804508;79;20933;-81
2021/01/14 09:31:58;;;;;;;15.27;7.23;;;;;;;-3.36;100.00;99060.27;1791831;79;21187;-82
2021/01/14 09:34:28;;;;;;;14.77;8.03;;;;;;;-3.33;100.00;99064.00;1803687;79;21462;-86
2021/01/14 09:37:01;;;;;;;16.63;8.27;;;;;;;-3.34;100.00;99064.97;1813125;78;21056;-80
2021/01/14 09:39:29;;;;;;;11.73;7.27;;;;;;;-3.39;100.00;99068.41;1811327;79;20922;-81
2021/01/14 09:41:57;;;;;;;14.63;7.30;;;;;;;-3.42;100.00;99062.84;1778736;79;21027;-82
2021/01/14 09:44:28;;;;;;;13.97;7.43;;;;;;;-3.43;100.00;99061.16;1774679;79;21146;-78
2021/01/14 09:46:56;;;;;;;11.43;7.80;;;;;;;-3.39;100.00;99065.77;1802794;77;21067;-80
2021/01/14 09:49:30;;;;;;;15.67;8.97;;;;;;;-3.40;100.00;99063.57;1807849;79;21443;-82
2021/01/14 09:52:01;;;;;;;14.43;7.93;;;;;;;-3.40;100.00;99058.28;1731296;82;21101;-72
2021/01/14 09:54:30;;;;;;;14.87;8.60;;;;;;;-3.38;100.00;99057.73;1718281;83;20985;-72
2021/01/14 09:56:58;;;;;;;14.50;7.80;;;;;;;-3.36;100.00;99044.41;1733658;82;21386;-73
2021/01/14 09:59:37;;;;;;;12.00;6.63;;;;;;;-3.35;100.00;99042.95;1718430;83;21121;-74
2021/01/14 10:02:17;;;;;;;15.53;9.33;;;;;;;-3.28;100.00;99038.09;1737429;81;21779;-80
2021/01/14 10:04:54;;;;;;;19.50;9.73;;;;;;;-3.17;100.00;99038.20;1719771;83;21037;-85
2021/01/14 10:07:33;;;;;;;18.40;9.10;;;;;;;-3.08;100.00;99037.54;1880097;75;23974;-82
2021/01/14 10:10:06;;;;;;;14.23;7.33;;;;;;;-3.07;100.00;99040.53;1855400;76;21566;-84
2021/01/14 10:12:35;;;;;;;17.80;9.27;;;;;;;-3.08;100.00;99038.86;1793784;79;21642;-80
2021/01/14 10:15:14;;;;;;;10.83;5.83;;;;;;;-3.07;100.00;99042.34;1791987;79;21037;-82
2021/01/14 10:17:42;;;;;;;18.10;8.17;;;;;;;-3.10;100.00;99035.48;1805134;79;21440;-79
2021/01/14 10:20:12;;;;;;;9.60;5.13;;;;;;;-3.12;100.00;99023.31;1791958;79;20935;-79
2021/01/14 10:22:52;;;;;;;17.87;10.17;;;;;;;-3.11;100.00;99031.14;1816337;79;20910;-79
2021/01/14 10:25:21;;;;;;;17.17;7.53;;;;;;;-3.08;100.00;99024.77;1782523;80;21982;-78
2021/01/14 10:28:03;;;;;;;12.33;6.07;;;;;;;-3.11;100.00;99028.98;1792057;80;21402;-79
2021/01/14 10:30:34;;;;;;;14.95;7.45;;;;;;;-3.16;100.00;99027.97;1791913;80;21022;-80
2021/01/14 10:33:04;;;;;;;12.87;8.70;;;;;;;-3.15;100.00;99023.06;1808795;78;21164;-79
2021/01/14 10:35:34;;;;;;;13.17;6.83;;;;;;;-3.10;100.00;99016.97;1736453;81;21152;-77
2021/01/14 10:38:15;;;;;;;16.27;7.87;;;;;;;-3.10;100.00;99014.33;1757893;80;21579;-76
2021/01/14 10:40:49;;;;;;;20.53;10.47;;;;;;;-3.09;100.00;99014.67;1745079;80;21108;-80
2021/01/14 10:43:31;;;;;;;14.17;7.13;;;;;;;-3.10;100.00;99016.97;1742311;82;20954;-81
2021/01/14 10:46:01;;;;;;;7.13;4.47;;;;;;;-3.11;100.00;99008.66;1750045;81;21001;-84
2021/01/14 10:48:38;;;;;;;11.33;6.20;;;;;;;-3.15;100.00;99007.20;1757322;80;21048;-80
2021/01/14 10:51:33;;;;;;;8.03;5.77;;;;;;;-3.12;100.00;98986.28;1805647;77;23925;-85
2021/01/14 10:54:02;;;;;;;13.43;7.27;;;;;;;-3.13;100.00;98990.73;1789431;79;20934;-79
2021/01/14 10:56:30;;;;;;;12.97;6.97;;;;;;;-3.10;100.00;98985.23;1790085;79;21433;-79
2021/01/14 10:59:06;;;;;;;11.90;7.37;;;;;;;-3.07;100.00;98977.55;1805589;79;21122;-82
2021/01/14 11:01:37;;;;;;;13.07;7.17;;;;;;;-3.03;100.00;98976.36;1790287;79;21011;-80
2021/01/14 11:04:07;;;;;;;11.20;6.27;;;;;;;-2.96;100.00;98979.41;1758424;79;20985;-82
2021/01/14 11:06:36;;;;;;;21.83;7.23;;;;;;;-2.93;100.00;98982.67;1793180;79;21066;-78
2021/01/14 11:09:11;;;;;;;8.03;5.20;;;;;;;-2.93;100.00;98980.52;1799810;79;21429;-78
2021/01/14 11:11:41;;;;;;;14.70;6.80;;;;;;;-2.87;100.00;98981.38;1746660;80;20970;-77
2021/01/14 11:14:08;;;;;;;8.13;4.33;;;;;;;-2.82;100.00;98979.73;1788012;79;21574;-79
2021/01/14 11:16:37;;;;;;;14.63;7.40;;;;;;;-2.79;100.00;98978.20;1781562;78;21005;-76
2021/01/14 11:19:05;;;;;;;14.17;6.07;;;;;;;-2.78;100.00;98979.87;1785490;79;21020;-82
2021/01/14 11:21:35;;;;;;;11.73;5.30;;;;;;;-2.76;100.00;98974.84;1790587;79;21192;-80
2021/01/14 11:24:04;;;;;;;12.47;6.80;;;;;;;-2.75;100.00;98975.68;1794997;79;21020;-73
2021/01/14 11:26:32;;;;;;;8.67;5.67;;;;;;;-2.77;100.00;98967.84;1792598;79;21584;-75
2021/01/14 11:29:02;;;;;;;11.83;6.63;;;;;;;-2.76;100.00;98967.36;1791497;79;21033;-74
2021/01/14 11:31:32;;;;;;;16.10;7.27;;;;;;;-2.75;100.00;98965.09;1809052;79;20985;-74
2021/01/14 11:34:00;;;;;;;11.57;6.30;;;;;;;-2.72;100.00;98962.23;1818670;79;20989;-74
2021/01/14 11:36:28;;;;;;;12.37;6.27;;;;;;;-2.70;100.00;98958.50;1786914;79;20965;-74
2021/01/14 11:38:56;;;;;;;6.50;4.50;;;;;;;-2.67;100.00;98968.87;1818715;78;21602;-78
2021/01/14 11:41:25;;;;;;;10.70;6.07;;;;;;;-2.60;100.00;98966.62;1818735;78;20977;-72
2021/01/14 11:43:53;;;;;;;10.13;5.60;;;;;;;-2.55;100.00;98971.09;1818525;79;20993;-72
2021/01/14 11:46:24;;;;;;;8.83;4.40;;;;;;;-2.48;100.00;98976.75;1821377;78;21203;-84
2021/01/14 11:48:52;;;;;;;8.80;5.07;;;;;;;-2.41;100.00;98973.17;1820816;79;21419;-84
2021/01/14 11:51:20;;;;;;;11.37;7.30;;;;;;;-2.33;100.00;98968.16;1807628;78;21050;-79
2021/01/14 11:53:48;;;;;;;13.57;7.07;;;;;;;-2.29;100.00;98959.85;1806045;79;21010;-77
2021/01/14 11:56:17;;;;;;;13.03;6.13;;;;;;;-2.27;100.00;98965.52;1806375;79;21005;-83
2021/01/14 11:58:45;;;;;;;8.37;5.77;;;;;;;-2.29;100.00;98962.50;1806585;79;21046;-79
2021/01/14 12:01:13;;;;;;;12.03;5.67;;;;;;;-2.34;100.00;98967.33;1779629;79;21031;-80
2021/01/14 12:03:41;;;;;;;9.40;5.77;;;;;;;-2.37;100.00;98956.13;1784287;79;20970;-83
2021/01/14 12:06:10;;;;;;;10.57;5.67;;;;;;;-2.39;100.00;98950.94;1777334;80;21438;-83
2021/01/14 12:08:38;;;;;;;12.37;6.13;;;;;;;-2.36;100.00;98947.20;1789216;79;21012;-80
2021/01/14 12:11:06;;;;;;;14.53;7.63;;;;;;;-2.33;100.00;98960.22;1786690;79;21381;-83
2021/01/14 12:13:34;;;;;;;10.87;5.97;;;;;;;-2.29;100.00;98955.88;1779458;80;21013;-87
2021/01/14 12:16:07;;;;;;;15.93;7.75;;;;;;;-2.23;100.00;98960.34;1754388;79;21208;-76
2021/01/14 12:18:35;;;;;;;16.73;8.30;;;;;;;-2.21;100.00;98974.31;1734912;82;21037;-77
2021/01/14 12:21:03;;;;;;;10.47;6.20;;;;;;;-2.19;100.00;98985.66;1782854;79;21127;-77
2021/01/14 12:23:31;;;;;;;11.97;5.90;;;;;;;-2.22;100.00;98969.99;1772158;81;21358;-75
2021/01/14 12:26:00;;;;;;;10.73;5.37;;;;;;;-2.29;100.00;98971.77;1772017;80;21004;-75
2021/01/14 12:28:28;;;;;;;12.13;6.43;;;;;;;-2.34;100.00;98987.19;1772079;81;21037;-75